createdAt,value
2018-05-29T00:00:17.452Z,49.80
2018-05-29T00:04:20.096Z,49.40
2018-05-29T00:08:22.820Z,49.30
2018-05-29T00:12:25.440Z,49.40
2018-05-29T00:16:28.180Z,49.40
2018-05-29T00:20:30.904Z,49.50
2018-05-29T00:24:33.563Z,50.20
2018-05-29T00:28:36.212Z,49.70
2018-05-29T00:32:38.870Z,49.70
2018-05-29T00:36:41.545Z,50.00
2018-05-29T00:40:44.204Z,49.70
2018-05-29T00:44:46.865Z,49.80
2018-05-29T00:48:49.561Z,49.80
2018-05-29T00:52:52.948Z,49.90
2018-05-29T00:56:55.604Z,49.90
2018-05-29T01:00:58.262Z,49.90
2018-05-29T01:05:01.686Z,50.10
2018-05-29T01:09:04.359Z,50.10
2018-05-29T01:13:06.992Z,50.00
2018-05-29T01:17:09.646Z,50.40
2018-05-29T01:21:12.299Z,50.20
2018-05-29T01:25:14.948Z,50.20
2018-05-29T01:29:17.564Z,50.20
2018-05-29T01:33:20.290Z,50.20
2018-05-29T01:37:22.946Z,50.20
2018-05-29T01:41:25.595Z,50.30
2018-05-29T01:45:28.245Z,50.40
2018-05-29T01:49:31.638Z,50.40
2018-05-29T01:53:34.349Z,50.30
2018-05-29T01:57:37.773Z,50.30
2018-05-29T02:01:40.429Z,50.30
2018-05-29T02:05:43.859Z,50.40
2018-05-29T02:09:46.481Z,50.40
2018-05-29T02:13:49.138Z,50.40
2018-05-29T02:17:51.798Z,50.50
2018-05-29T02:21:55.216Z,51.00
2018-05-29T02:25:58.634Z,50.60
2018-05-29T02:30:01.313Z,50.60
2018-05-29T02:34:04.067Z,50.60
2018-05-29T02:38:06.737Z,50.50
2018-05-29T02:42:09.403Z,50.50
2018-05-29T02:46:12.070Z,50.60
2018-05-29T02:50:15.492Z,50.70
2018-05-29T02:54:18.157Z,50.80
2018-05-29T02:58:21.571Z,50.80
2018-05-29T03:02:25.003Z,50.80
2018-05-29T03:06:27.618Z,50.80
2018-05-29T03:10:30.280Z,50.80
2018-05-29T03:14:32.934Z,50.80
2018-05-29T03:18:35.624Z,50.80
2018-05-29T03:22:39.107Z,50.90
2018-05-29T03:26:41.723Z,50.90
2018-05-29T03:30:45.151Z,50.90
2018-05-29T03:34:47.813Z,50.90
2018-05-29T03:38:51.633Z,51.00
2018-05-29T03:42:55.055Z,51.10
2018-05-29T03:46:57.681Z,51.00
2018-05-29T03:51:00.442Z,51.20
2018-05-29T03:55:03.105Z,51.10
2018-05-29T03:59:06.529Z,51.30
2018-05-29T04:03:09.194Z,51.20
2018-05-29T04:07:12.573Z,51.10
2018-05-29T04:11:15.229Z,51.30
2018-05-29T04:15:17.932Z,51.20
2018-05-29T04:19:20.594Z,51.20
2018-05-29T04:23:23.251Z,51.40
2018-05-29T04:27:25.875Z,51.40
2018-05-29T04:31:28.520Z,51.90
2018-05-29T04:35:31.175Z,51.70
2018-05-29T04:39:33.884Z,51.60
2018-05-29T04:43:36.545Z,51.70
2018-05-29T04:47:39.175Z,51.60
2018-05-29T04:51:41.909Z,51.80
2018-05-29T04:55:44.565Z,51.80
2018-05-29T04:59:47.981Z,51.80
2018-05-29T05:03:51.459Z,52.40
2018-05-29T05:07:54.074Z,52.40
2018-05-29T05:11:57.489Z,51.90
2018-05-29T05:16:00.929Z,52.10
2018-05-29T05:20:03.585Z,52.10
2018-05-29T05:24:07.008Z,52.30
2018-05-29T05:28:09.863Z,52.30
2018-05-29T05:32:12.519Z,52.40
2018-05-29T05:36:15.164Z,52.60
2018-05-29T05:40:18.577Z,52.90
2018-05-29T05:44:21.225Z,52.90
2018-05-29T05:48:23.859Z,52.60
2018-05-29T05:52:26.686Z,54.70
2018-05-29T05:56:29.395Z,53.40
2018-05-29T06:00:32.081Z,56.70
2018-05-29T06:04:34.822Z,53.70
2018-05-29T06:08:37.447Z,54.70
2018-05-29T06:12:40.092Z,55.80
2018-05-29T06:16:42.757Z,54.70
2018-05-29T06:20:46.188Z,54.80
2018-05-29T06:24:48.836Z,54.80
2018-05-29T06:28:53.985Z,55.00
2018-05-29T06:32:56.636Z,55.00
2018-05-29T06:36:59.300Z,53.80
2018-05-29T06:41:01.955Z,52.80
2018-05-29T06:45:04.695Z,51.90
2018-05-29T06:49:07.356Z,51.30
2018-05-29T06:53:10.774Z,49.70
2018-05-29T06:57:13.497Z,49.70
2018-05-29T07:01:16.281Z,49.00
2018-05-29T07:05:19.029Z,48.00
2018-05-29T07:09:29.328Z,47.60
2018-05-29T07:13:31.980Z,47.60
2018-05-29T07:17:35.395Z,47.60
2018-05-29T07:21:38.865Z,46.50
2018-05-29T07:25:41.518Z,46.50
2018-05-29T07:29:44.136Z,46.20
2018-05-29T07:33:46.797Z,45.20
2018-05-29T07:37:49.450Z,45.40
2018-05-29T07:41:52.869Z,44.40
2018-05-29T07:45:56.296Z,45.50
2018-05-29T07:49:58.914Z,45.50
2018-05-29T07:54:01.572Z,45.20
2018-05-29T07:58:04.228Z,44.90
2018-05-29T08:02:07.644Z,44.10
2018-05-29T08:06:11.063Z,44.20
2018-05-29T08:10:13.677Z,44.00
2018-05-29T08:14:16.316Z,44.10
2018-05-29T08:18:19.737Z,43.40
2018-05-29T08:22:23.157Z,43.70
2018-05-29T08:26:25.812Z,43.70
2018-05-29T08:30:28.493Z,43.40
2018-05-29T08:34:31.173Z,43.40
2018-05-29T08:38:33.898Z,43.30
2018-05-29T08:42:37.322Z,43.20
2018-05-29T08:46:39.976Z,43.90
2018-05-29T08:50:42.595Z,43.00
2018-05-29T08:54:45.306Z,40.60
2018-05-29T08:58:47.949Z,42.30
2018-05-29T09:02:51.370Z,41.20
2018-05-29T09:06:54.840Z,42.10
2018-05-29T09:10:57.452Z,42.20
2018-05-29T09:15:00.875Z,42.80
2018-05-29T09:19:03.539Z,42.90
2018-05-29T09:23:07.029Z,43.10
2018-05-29T09:27:09.687Z,42.80
2018-05-29T09:31:12.310Z,43.10
2018-05-29T09:35:14.966Z,43.50
2018-05-29T09:39:17.612Z,44.10
2018-05-29T09:43:21.020Z,43.70
2018-05-29T09:47:24.440Z,44.50
2018-05-29T09:51:27.052Z,44.40
2018-05-29T09:55:29.709Z,44.50
2018-05-29T09:59:33.130Z,44.50
2018-05-29T10:03:35.785Z,44.40
2018-05-29T10:07:39.205Z,44.80
2018-05-29T10:11:42.588Z,43.00
2018-05-29T10:15:45.241Z,43.00
2018-05-29T10:19:54.829Z,43.90
2018-05-29T10:28:01.131Z,41.70
2018-05-29T10:32:03.746Z,43.60
2018-05-29T10:36:07.236Z,41.50
2018-05-29T10:40:12.852Z,41.50
2018-05-29T10:48:18.113Z,43.00
2018-05-29T10:52:20.737Z,44.10
2018-05-29T10:56:23.389Z,43.20
2018-05-29T11:00:26.038Z,42.50
2018-05-29T11:04:29.458Z,43.20
2018-05-29T11:08:32.842Z,42.70
2018-05-29T11:12:35.494Z,42.80
2018-05-29T11:16:38.157Z,41.90
2018-05-29T11:20:40.851Z,42.10
2018-05-29T11:24:43.499Z,41.70
2018-05-29T11:28:46.115Z,40.90
2018-05-29T11:32:48.781Z,41.00
2018-05-29T11:36:52.208Z,40.00
2018-05-29T11:40:54.862Z,40.00
2018-05-29T11:44:57.503Z,39.90
2018-05-29T11:52:59.069Z,39.30
2018-05-29T11:57:02.477Z,40.10
2018-05-29T12:01:05.125Z,40.20
2018-05-29T12:05:07.770Z,39.40
2018-05-29T12:09:10.385Z,37.40
2018-05-29T12:13:13.025Z,37.00
2018-05-29T12:17:16.439Z,38.60
2018-05-29T12:21:19.089Z,38.60
2018-05-29T12:25:21.743Z,38.60
2018-05-29T12:29:24.352Z,37.30
2018-05-29T12:33:27.146Z,37.70
2018-05-29T12:37:29.789Z,37.80
2018-05-29T12:41:32.441Z,38.10
2018-05-29T12:45:35.053Z,38.70
2018-05-29T12:49:37.845Z,39.10
2018-05-29T12:53:41.277Z,37.70
2018-05-29T12:57:43.950Z,37.60
2018-05-29T13:01:46.594Z,37.30
2018-05-29T13:05:49.239Z,38.10
2018-05-29T13:09:51.880Z,38.20
2018-05-29T13:13:54.552Z,38.30
2018-05-29T13:17:57.194Z,38.40
2018-05-29T13:21:59.833Z,37.50
2018-05-29T13:26:02.455Z,37.40
2018-05-29T13:30:05.878Z,36.30
2018-05-29T13:34:08.542Z,36.40
2018-05-29T13:38:12.029Z,37.60
2018-05-29T13:42:14.688Z,37.60
2018-05-29T13:46:17.297Z,37.40
2018-05-29T13:50:19.957Z,36.40
2018-05-29T13:54:22.704Z,35.40
2018-05-29T13:58:26.139Z,35.40
2018-05-29T14:02:28.854Z,35.30
2018-05-29T14:06:31.532Z,36.90
2018-05-29T14:10:34.178Z,37.40
2018-05-29T14:14:37.598Z,36.90
2018-05-29T14:18:41.013Z,37.00
2018-05-29T14:22:43.629Z,37.00
2018-05-29T14:26:46.293Z,37.40
2018-05-29T14:30:48.946Z,36.00
2018-05-29T14:34:51.590Z,36.70
2018-05-29T14:38:54.230Z,36.00
2018-05-29T14:42:56.839Z,35.60
2018-05-29T14:46:59.480Z,35.80
2018-05-29T14:51:02.118Z,34.90
2018-05-29T14:55:04.756Z,35.00
2018-05-29T14:59:07.406Z,34.70
2018-05-29T15:03:10.010Z,36.90
2018-05-29T15:07:12.657Z,35.20
2018-05-29T15:11:16.061Z,35.80
2018-05-29T15:15:19.479Z,35.70
2018-05-29T15:19:22.089Z,35.70
2018-05-29T15:23:24.740Z,35.50
2018-05-29T15:27:28.155Z,36.30
2018-05-29T15:31:31.615Z,36.90
2018-05-29T15:35:34.252Z,36.80
2018-05-29T15:39:37.702Z,36.60
2018-05-29T15:43:40.345Z,36.50
2018-05-29T15:47:43.787Z,37.70
2018-05-29T15:51:46.428Z,37.60
2018-05-29T15:55:49.864Z,38.50
2018-05-29T16:03:44.872Z,38.00
2018-05-29T16:07:48.276Z,39.50
2018-05-29T16:11:51.748Z,39.00
2018-05-29T16:15:54.402Z,39.00
2018-05-29T16:19:57.068Z,39.20
2018-05-29T16:24:00.475Z,39.00
2018-05-29T16:28:03.876Z,39.30
2018-05-29T16:32:07.288Z,39.70
2018-05-29T16:36:10.711Z,40.20
2018-05-29T16:40:13.329Z,40.50
2018-05-29T16:44:15.976Z,40.60
2018-05-29T16:48:19.404Z,40.70
2018-05-29T16:52:22.049Z,40.70
2018-05-29T16:56:24.705Z,41.10
2018-05-29T17:00:27.313Z,41.30
2018-05-29T17:04:29.979Z,41.60
2018-05-29T17:08:32.625Z,40.90
2018-05-29T17:12:36.043Z,41.30
2018-05-29T17:16:38.686Z,41.30
2018-05-29T17:20:41.305Z,41.50
2018-05-29T17:24:44.708Z,42.10
2018-05-29T17:28:48.121Z,42.30
2018-05-29T17:32:51.530Z,42.60
2018-05-29T17:36:54.951Z,42.70
2018-05-29T17:40:57.561Z,42.60
2018-05-29T17:45:00.275Z,42.60
2018-05-29T17:49:02.880Z,42.20
2018-05-29T17:53:05.529Z,42.30
2018-05-29T17:57:08.175Z,42.90
2018-05-29T18:01:11.561Z,42.30
2018-05-29T18:05:14.209Z,42.20
2018-05-29T18:09:16.857Z,42.30
2018-05-29T18:13:20.343Z,42.90
2018-05-29T18:17:23.825Z,42.30
2018-05-29T18:21:26.442Z,42.30
2018-05-29T18:25:29.090Z,42.60
2018-05-29T18:29:31.741Z,43.20
2018-05-29T18:33:35.155Z,43.60
2018-05-29T18:37:37.803Z,43.50
2018-05-29T18:41:40.424Z,43.90
2018-05-29T18:45:43.840Z,43.50
2018-05-29T18:49:46.555Z,43.50
2018-05-29T18:53:49.261Z,46.70
2018-05-29T18:57:51.909Z,46.00
2018-05-29T19:01:54.529Z,45.20
2018-05-29T19:05:57.183Z,45.40
2018-05-29T19:09:59.820Z,45.40
2018-05-29T19:14:02.564Z,45.30
2018-05-29T19:18:05.205Z,45.70
2018-05-29T19:22:07.812Z,45.70
2018-05-29T19:26:11.216Z,46.30
2018-05-29T19:30:13.853Z,46.30
2018-05-29T19:34:16.497Z,46.40
2018-05-29T19:38:19.956Z,46.70
2018-05-29T19:42:22.566Z,46.60
2018-05-29T19:46:25.208Z,46.20
2018-05-29T19:50:27.847Z,46.50
2018-05-29T19:54:30.501Z,46.20
2018-05-29T19:58:33.152Z,46.50
2018-05-29T20:02:35.803Z,46.50
2018-05-29T20:06:38.549Z,46.30
2018-05-29T20:10:41.180Z,46.50
2018-05-29T20:14:43.824Z,46.40
2018-05-29T20:18:46.478Z,46.60
2018-05-29T20:22:49.128Z,46.50
2018-05-29T20:26:51.832Z,46.90
2018-05-29T20:30:54.492Z,47.70
2018-05-29T20:34:57.133Z,48.20
2018-05-29T20:38:59.769Z,47.70
2018-05-29T20:43:02.386Z,48.30
2018-05-29T20:47:05.033Z,48.40
2018-05-29T20:51:07.674Z,47.70
2018-05-29T20:55:10.313Z,47.40
2018-05-29T20:59:12.965Z,47.50
2018-05-29T21:03:15.629Z,47.50
2018-05-29T21:07:19.301Z,47.50
2018-05-29T21:11:22.091Z,51.70
2018-05-29T21:15:24.766Z,48.70
2018-05-29T21:19:27.431Z,48.70
2018-05-29T21:23:30.040Z,48.90
2018-05-29T21:27:33.496Z,54.10
2018-05-29T21:31:36.143Z,54.00
2018-05-29T21:35:39.601Z,58.30
2018-05-29T21:39:44.296Z,58.40
2018-05-29T21:43:46.953Z,57.10
2018-05-29T21:47:50.364Z,60.50
2018-05-29T21:51:53.782Z,56.90
2018-05-29T21:55:57.308Z,55.50
2018-05-29T21:59:59.981Z,55.40
2018-05-29T22:04:03.371Z,54.20
2018-05-29T22:08:06.022Z,54.10
2018-05-29T22:12:08.672Z,54.30
2018-05-29T22:16:11.317Z,54.60
2018-05-29T22:20:13.924Z,54.80
2018-05-29T22:24:16.574Z,54.50
2018-05-29T22:28:19.273Z,55.60
2018-05-29T22:32:21.919Z,56.00
2018-05-29T22:36:24.537Z,56.80
2018-05-29T22:40:27.195Z,54.40
2018-05-29T22:44:29.990Z,56.90
2018-05-29T22:48:32.641Z,56.70
2018-05-29T22:52:35.291Z,57.60
2018-05-29T22:56:37.945Z,56.80
2018-05-29T23:00:41.356Z,60.10
2018-05-29T23:04:43.998Z,60.00
2018-05-29T23:08:46.647Z,62.10
2018-05-29T23:12:50.042Z,60.80
2018-05-29T23:16:52.688Z,61.00
2018-05-29T23:20:55.324Z,57.50
2018-05-29T23:24:58.033Z,56.20
2018-05-29T23:29:00.681Z,56.00
2018-05-29T23:33:04.069Z,55.20
2018-05-29T23:37:06.727Z,55.20
2018-05-29T23:41:09.372Z,55.80
2018-05-29T23:45:12.777Z,56.00
2018-05-29T23:49:15.389Z,55.90
2018-05-29T23:53:18.046Z,57.50
2018-05-29T23:57:21.570Z,55.50
